Time,TemperatureF,DewpointF,PressureIn,WindDirection,WindDirectionDegrees,WindSpeedMPH,WindSpeedGustMPH,Humidity,HourlyPrecipIn,Conditions,Clouds,dailyrainin,SolarRadiationWatts/m^2,SoftwareType,DateUTC
2013-02-25 00:00:00,41.2,33.9,30.04,NE,34,0.0,0.0,75,0.00,CLR,,0.00,0.0,WeatherDisplay:10.37,2013-02-25 05:00:00,
2013-02-25 00:05:00,40.7,31.7,30.04,NE,34,0.0,0.0,70,0.00,CLR,,0.00,0.0,WeatherDisplay:10.37,2013-02-25 05:05:00,
2013-02-25 00:10:00,40.7,31.7,30.04,NE,34,0.0,0.0,70,0.00,CLR,,0.00,0.0,WeatherDisplay:10.37,2013-02-25 05:10:00,
2013-02-25 00:15:00,41.0,33.7,30.04,NE,34,0.0,0.0,75,0.00,CLR,,0.00,0.0,WeatherDisplay:10.37,2013-02-25 05:15:00,
2013-02-25 00:20:00,40.6,33.3,30.05,NE,34,0.0,0.0,75,0.00,CLR,,0.00,0.0,WeatherDisplay:10.37,2013-02-25 05:20:00,
2013-02-25 00:25:00,40.0,32.7,30.05,NE,34,0.0,0.0,75,0.00,CLR,,0.00,0.0,WeatherDisplay:10.37,2013-02-25 05:25:00,
2013-02-25 00:30:00,39.8,32.2,30.04,NE,34,0.0,0.0,74,0.00,CLR,,0.00,0.0,WeatherDisplay:10.37,2013-02-25 05:30:00,
2013-02-25 00:35:00,39.9,33.3,30.05,NE,34,0.0,0.0,77,0.00,CLR,,0.00,0.0,WeatherDisplay:10.37,2013-02-25 05:35:00,
2013-02-25 00:40:00,39.9,33.9,30.05,NE,34,0.0,0.0,79,0.00,CLR,,0.00,0.0,WeatherDisplay:10.37,2013-02-25 05:40:00,
2013-02-25 00:45:00,39.7,34.0,30.05,NE,34,0.0,0.0,80,0.00,CLR,,0.00,0.0,WeatherDisplay:10.37,2013-02-25 05:45:00,
2013-02-25 00:50:00,39.7,34.3,30.05,NE,34,0.0,0.0,81,0.00,CLR,,0.00,0.0,WeatherDisplay:10.37,2013-02-25 05:50:00,
2013-02-25 00:55:00,39.6,33.9,30.05,NE,34,0.0,0.0,80,0.00,CLR,,0.00,0.0,WeatherDisplay:10.37,2013-02-25 05:55:00,
2013-02-25 01:00:00,39.2,32.9,30.05,NE,34,0.0,0.0,78,0.00,CLR,,0.00,0.0,WeatherDisplay:10.37,2013-02-25 06:00:00,
2013-02-25 01:05:00,39.0,32.7,30.05,NE,34,0.0,0.0,78,0.00,CLR,,0.00,0.0,WeatherDisplay:10.37,2013-02-25 06:05:00,
2013-02-25 01:10:00,39.1,33.1,30.05,NE,34,0.0,0.0,79,0.00,CLR,,0.00,0.0,WeatherDisplay:10.37,2013-02-25 06:10:00,
2013-02-25 01:15:00,39.0,33.0,30.05,NE,34,0.0,0.0,79,0.00,CLR,,0.00,0.0,WeatherDisplay:10.37,2013-02-25 06:15:00,
2013-02-25 01:20:00,39.1,32.5,30.05,NE,34,0.0,0.0,77,0.00,CLR,,0.00,0.0,WeatherDisplay:10.37,2013-02-25 06:20:00,
2013-02-25 01:25:00,39.4,33.1,30.05,NE,34,0.0,0.0,78,0.00,CLR,,0.00,0.0,WeatherDisplay:10.37,2013-02-25 06:25:00,
2013-02-25 01:30:00,39.5,31.9,30.05,NE,34,0.0,0.0,74,0.00,CLR,,0.00,0.0,WeatherDisplay:10.37,2013-02-25 06:30:00,
2013-02-25 01:35:00,39.7,31.8,30.06,NE,34,0.0,0.0,73,0.00,CLR,,0.00,0.0,WeatherDisplay:10.37,2013-02-25 06:35:00,
2013-02-25 01:40:00,39.8,31.8,30.06,NE,34,0.0,0.0,73,0.00,CLR,,0.00,0.0,WeatherDisplay:10.37,2013-02-25 06:40:00,
2013-02-25 01:45:00,39.9,30.9,30.05,NE,34,0.0,0.0,70,0.00,CLR,,0.00,0.0,WeatherDisplay:10.37,2013-02-25 06:45:00,
2013-02-25 01:50:00,40.4,30.7,30.05,NE,34,0.0,0.0,68,0.00,CLR,,0.00,0.0,WeatherDisplay:10.37,2013-02-25 06:50:00,
2013-02-25 01:55:00,40.7,30.2,30.06,NE,34,0.0,0.0,66,0.00,CLR,,0.00,0.0,WeatherDisplay:10.37,2013-02-25 06:55:00,
2013-02-25 02:00:00,40.9,30.0,30.06,NE,34,0.0,0.0,65,0.00,CLR,,0.00,0.0,WeatherDisplay:10.37,2013-02-25 07:00:00,
2013-02-25 02:05:00,41.0,30.5,30.06,NE,34,0.0,0.0,66,0.00,CLR,,0.00,0.0,WeatherDisplay:10.37,2013-02-25 07:05:00,
2013-02-25 02:10:00,41.1,29.8,30.06,NE,34,0.0,0.0,64,0.00,CLR,,0.00,0.0,WeatherDisplay:10.37,2013-02-25 07:10:00,
2013-02-25 02:15:00,41.0,29.7,30.06,NE,34,0.0,0.0,64,0.00,CLR,,0.00,0.0,WeatherDisplay:10.37,2013-02-25 07:15:00,
2013-02-25 02:20:00,40.9,28.9,30.06,NE,34,0.0,0.0,62,0.00,CLR,,0.00,0.0,WeatherDisplay:10.37,2013-02-25 07:20:00,
2013-02-25 02:25:00,41.1,29.1,30.06,NE,34,0.0,0.0,62,0.00,CLR,,0.00,0.0,WeatherDisplay:10.37,2013-02-25 07:25:00,
2013-02-25 02:30:00,41.0,28.6,30.05,NE,34,0.0,0.0,61,0.00,CLR,,0.00,0.0,WeatherDisplay:10.37,2013-02-25 07:30:00,
2013-02-25 02:35:00,40.9,29.7,30.05,NE,34,0.0,0.0,64,0.00,CLR,,0.00,0.0,WeatherDisplay:10.37,2013-02-25 07:35:00,
2013-02-25 02:40:00,40.7,29.1,30.05,NE,34,0.0,0.0,63,0.00,CLR,,0.00,0.0,WeatherDisplay:10.37,2013-02-25 07:40:00,
2013-02-25 02:45:00,40.8,28.4,30.05,NE,34,0.0,0.0,61,0.00,CLR,,0.00,0.0,WeatherDisplay:10.37,2013-02-25 07:45:00,
2013-02-25 02:50:00,41.0,28.2,30.05,NE,34,0.0,0.1,60,0.00,CLR,,0.00,0.0,WeatherDisplay:10.37,2013-02-25 07:50:00,
2013-02-25 02:55:00,40.9,28.9,30.05,NE,34,1.1,0.0,62,0.00,CLR,,0.00,0.0,WeatherDisplay:10.37,2013-02-25 07:55:00,
2013-02-25 03:00:00,40.7,28.7,30.06,NE,34,0.0,0.0,62,0.00,CLR,,0.00,0.0,WeatherDisplay:10.37,2013-02-25 08:00:00,
2013-02-25 03:05:00,40.7,28.3,30.06,ENE,61,0.0,0.1,61,0.00,CLR,,0.00,0.0,WeatherDisplay:10.37,2013-02-25 08:05:00,
2013-02-25 03:10:00,40.8,28.4,30.06,ENE,61,0.0,0.1,61,0.00,CLR,,0.00,0.0,WeatherDisplay:10.37,2013-02-25 08:10:00,
2013-02-25 03:15:00,40.8,28.4,30.06,ENE,61,0.0,0.1,61,0.00,CLR,,0.00,0.0,WeatherDisplay:10.37,2013-02-25 08:15:00,
2013-02-25 03:20:00,40.8,28.4,30.06,ENE,61,0.0,0.1,61,0.00,CLR,,0.00,0.0,WeatherDisplay:10.37,2013-02-25 08:20:00,
2013-02-25 03:25:00,40.8,28.4,30.06,ENE,61,0.0,0.1,61,0.00,CLR,,0.00,0.0,WeatherDisplay:10.37,2013-02-25 08:25:00,
2013-02-25 03:30:00,40.8,28.4,30.06,ENE,61,0.0,0.1,61,0.00,CLR,,0.00,0.0,WeatherDisplay:10.37,2013-02-25 08:30:00,
2013-02-25 03:35:00,40.8,28.4,30.06,ENE,61,0.0,0.1,61,0.00,CLR,,0.00,0.0,WeatherDisplay:10.37,2013-02-25 08:35:00,
2013-02-25 03:40:00,40.8,28.4,30.06,ENE,61,0.0,0.1,61,0.00,CLR,,0.00,0.0,WeatherDisplay:10.37,2013-02-25 08:40:00,
2013-02-25 03:45:00,40.8,28.4,30.06,ENE,61,0.0,0.1,61,0.00,CLR,,0.00,0.0,WeatherDisplay:10.37,2013-02-25 08:45:00,
2013-02-25 03:50:00,40.8,28.4,30.06,ENE,61,0.0,0.1,61,0.00,CLR,,0.00,0.0,WeatherDisplay:10.37,2013-02-25 08:50:00,
2013-02-25 03:55:00,40.8,28.4,30.06,ENE,61,0.0,0.1,61,0.00,CLR,,0.00,0.0,WeatherDisplay:10.37,2013-02-25 08:55:00,
2013-02-25 04:00:00,40.8,28.4,30.06,ENE,61,0.0,0.1,61,0.00,CLR,,0.00,0.0,WeatherDisplay:10.37,2013-02-25 09:00:00,
2013-02-25 04:05:00,40.8,28.4,30.06,ENE,61,0.0,0.1,61,0.00,CLR,,0.00,0.0,WeatherDisplay:10.37,2013-02-25 09:05:00,
2013-02-25 04:10:00,40.8,28.4,30.06,ENE,61,0.0,0.1,61,0.00,CLR,,0.00,0.0,WeatherDisplay:10.37,2013-02-25 09:10:00,
2013-02-25 04:15:00,40.8,28.4,30.06,ENE,61,0.0,0.1,61,0.00,CLR,,0.00,0.0,WeatherDisplay:10.37,2013-02-25 09:15:00,
2013-02-25 04:20:00,41.1,27.4,30.06,NNE,22,8.1,8.1,58,0.00,CLR,,0.00,0.0,WeatherDisplay:10.37,2013-02-25 09:20:00,
2013-02-25 04:25:00,41.1,27.4,30.06,NNE,22,4.6,4.6,58,0.00,CLR,,0.00,0.0,WeatherDisplay:10.37,2013-02-25 09:25:00,
2013-02-25 04:30:00,41.1,27.4,30.06,NNE,22,4.6,4.6,58,0.00,CLR,,0.00,0.0,WeatherDisplay:10.37,2013-02-25 09:30:00,
2013-02-25 04:35:00,41.1,27.4,30.06,NNE,22,4.6,4.6,58,0.00,CLR,,0.00,0.0,WeatherDisplay:10.37,2013-02-25 09:35:00,
2013-02-25 04:40:00,41.1,27.4,30.06,NNE,22,4.6,4.6,58,0.00,CLR,,0.00,0.0,WeatherDisplay:10.37,2013-02-25 09:40:00,
2013-02-25 04:45:00,41.1,27.4,30.06,NNE,22,4.6,4.6,58,0.00,CLR,,0.00,0.0,WeatherDisplay:10.37,2013-02-25 09:45:00,
2013-02-25 04:50:00,41.1,27.4,30.06,NNE,22,4.6,4.6,58,0.00,CLR,,0.00,0.0,WeatherDisplay:10.37,2013-02-25 09:50:00,
2013-02-25 04:55:00,41.1,27.4,30.06,NNE,22,4.6,4.6,58,0.00,CLR,,0.00,0.0,WeatherDisplay:10.37,2013-02-25 09:55:00,
2013-02-25 05:00:00,41.1,27.4,30.06,NNE,22,4.6,4.6,58,0.00,CLR,,0.00,0.0,WeatherDisplay:10.37,2013-02-25 10:00:00,
2013-02-25 05:05:00,41.1,27.4,30.06,NNE,22,4.6,4.6,58,0.00,CLR,,0.00,0.0,WeatherDisplay:10.37,2013-02-25 10:05:00,
2013-02-25 05:10:00,41.1,27.4,30.06,NNE,22,4.6,4.6,58,0.00,CLR,,0.00,0.0,WeatherDisplay:10.37,2013-02-25 10:10:00,
2013-02-25 05:15:00,41.1,27.4,30.06,NNE,22,4.6,4.6,58,0.00,CLR,,0.00,0.0,WeatherDisplay:10.37,2013-02-25 10:15:00,
2013-02-25 05:20:00,41.1,27.4,30.06,NNE,22,4.6,4.6,58,0.00,CLR,,0.00,0.0,WeatherDisplay:10.37,2013-02-25 10:20:00,
2013-02-25 05:25:00,41.1,27.4,30.06,NNE,22,4.6,4.6,58,0.00,CLR,,0.00,0.0,WeatherDisplay:10.37,2013-02-25 10:25:00,
2013-02-25 05:30:00,41.1,27.4,30.06,NNE,22,4.6,4.6,58,0.00,CLR,,0.00,0.0,WeatherDisplay:10.37,2013-02-25 10:30:00,
2013-02-25 05:35:00,41.1,27.4,30.06,NNE,22,4.6,4.6,58,0.00,CLR,,0.00,0.0,WeatherDisplay:10.37,2013-02-25 10:35:00,
2013-02-25 05:40:00,41.1,27.4,30.06,NNE,22,4.6,4.6,58,0.00,CLR,,0.00,0.0,WeatherDisplay:10.37,2013-02-25 10:40:00,
2013-02-25 05:45:00,41.1,27.4,30.06,NNE,22,4.6,4.6,58,0.00,CLR,,0.00,0.0,WeatherDisplay:10.37,2013-02-25 10:45:00,
2013-02-25 05:50:00,41.1,27.4,30.06,NNE,22,4.6,4.6,58,0.00,CLR,,0.00,0.0,WeatherDisplay:10.37,2013-02-25 10:50:00,
2013-02-25 05:55:00,41.1,27.4,30.06,NNE,22,4.6,4.6,58,0.00,CLR,,0.00,0.0,WeatherDisplay:10.37,2013-02-25 10:55:00,
2013-02-25 06:00:00,41.1,27.4,30.06,NNE,22,4.6,4.6,58,0.00,CLR,,0.00,0.0,WeatherDisplay:10.37,2013-02-25 11:00:00,
2013-02-25 06:05:00,41.1,27.4,30.06,NNE,22,4.6,4.6,58,0.00,CLR,,0.00,0.0,WeatherDisplay:10.37,2013-02-25 11:05:00,
2013-02-25 06:10:00,41.1,27.4,30.06,NNE,22,4.6,4.6,58,0.00,CLR,,0.00,0.0,WeatherDisplay:10.37,2013-02-25 11:10:00,
2013-02-25 06:15:00,39.9,27.9,30.11,North,360,0.0,4.9,62,0.00,CLR,,0.00,0.0,WeatherDisplay:10.37,2013-02-25 11:15:00,
2013-02-25 06:20:00,39.9,27.9,30.11,North,360,0.0,4.9,62,0.00,CLR,,0.00,0.0,WeatherDisplay:10.37,2013-02-25 11:20:00,
2013-02-25 06:25:00,39.9,27.9,30.11,North,360,0.0,4.9,62,0.00,CLR,,0.00,0.0,WeatherDisplay:10.37,2013-02-25 11:25:00,
2013-02-25 06:30:00,39.6,28.0,30.11,East,84,0.0,0.0,63,0.00,CLR,,0.00,0.0,WeatherDisplay:10.37,2013-02-25 11:30:00,
2013-02-25 06:35:00,39.6,28.0,30.11,East,84,0.0,0.0,63,0.00,CLR,,0.00,0.0,WeatherDisplay:10.37,2013-02-25 11:35:00,
2013-02-25 06:40:00,39.6,28.0,30.11,East,84,0.0,0.0,63,0.00,CLR,,0.00,0.0,WeatherDisplay:10.37,2013-02-25 11:40:00,
2013-02-25 06:45:00,39.2,28.0,30.11,SSW,200,1.1,1.1,64,0.00,CLR,,0.00,0.0,WeatherDisplay:10.37,2013-02-25 11:45:00,
2013-02-25 06:50:00,39.1,27.9,30.12,ESE,123,4.6,4.6,64,0.00,CLR,,0.00,0.0,WeatherDisplay:10.37,2013-02-25 11:50:00,
2013-02-25 06:55:00,39.1,28.3,30.12,NNE,19,0.0,1.8,65,0.00,CLR,,0.00,0.0,WeatherDisplay:10.37,2013-02-25 11:55:00,
2013-02-25 07:00:00,39.1,28.3,30.12,NNE,19,0.0,1.8,65,0.00,CLR,,0.00,0.0,WeatherDisplay:10.37,2013-02-25 12:00:00,
2013-02-25 07:05:00,39.1,28.3,30.12,NNE,19,0.0,1.8,65,0.00,CLR,,0.00,0.0,WeatherDisplay:10.37,2013-02-25 12:05:00,
2013-02-25 07:10:00,39.1,28.3,30.12,NNE,19,0.0,1.8,65,0.00,CLR,,0.00,0.0,WeatherDisplay:10.37,2013-02-25 12:10:00,
2013-02-25 07:15:00,39.1,28.3,30.12,NNE,19,0.0,1.8,65,0.00,CLR,,0.00,0.0,WeatherDisplay:10.37,2013-02-25 12:15:00,
2013-02-25 07:20:00,39.1,28.3,30.12,NNE,19,0.0,1.8,65,0.00,CLR,,0.00,0.0,WeatherDisplay:10.37,2013-02-25 12:20:00,
2013-02-25 07:25:00,39.1,28.3,30.12,NNE,19,0.0,1.8,65,0.00,CLR,,0.00,0.0,WeatherDisplay:10.37,2013-02-25 12:25:00,
2013-02-25 07:30:00,39.1,28.3,30.12,NNE,19,0.0,1.8,65,0.00,CLR,,0.00,0.0,WeatherDisplay:10.37,2013-02-25 12:30:00,
2013-02-25 07:35:00,39.1,28.3,30.12,NNE,19,0.0,1.8,65,0.00,CLR,,0.00,0.0,WeatherDisplay:10.37,2013-02-25 12:35:00,
2013-02-25 07:40:00,38.3,28.7,30.16,NNW,348,0.0,0.0,68,0.00,CLR,,0.00,28.0,WeatherDisplay:10.37,2013-02-25 12:40:00,
2013-02-25 07:45:00,38.2,28.2,30.16,SSE,157,2.3,0.0,67,0.00,CLR,,0.00,33.0,WeatherDisplay:10.37,2013-02-25 12:45:00,
2013-02-25 07:50:00,38.2,28.9,30.16,NNE,22,0.0,0.1,69,0.00,CLR,,0.00,39.0,WeatherDisplay:10.37,2013-02-25 12:50:00,
2013-02-25 07:56:00,38.1,28.5,30.17,ENE,63,3.5,3.5,68,0.00,CLR,,0.00,44.0,WeatherDisplay:10.37,2013-02-25 12:56:00,
2013-02-25 08:02:00,38.3,29.0,30.17,NE,45,1.1,0.0,69,0.00,OVC,,0.00,54.0,WeatherDisplay:10.37,2013-02-25 13:02:00,
2013-02-25 08:07:00,38.2,28.9,30.17,SE,146,3.5,3.5,69,0.00,OVC,,0.00,63.0,WeatherDisplay:10.37,2013-02-25 13:07:00,
2013-02-25 08:12:00,38.2,28.6,30.17,ENE,74,2.3,2.3,68,0.00,OVC,,0.00,70.0,WeatherDisplay:10.37,2013-02-25 13:12:00,
2013-02-25 08:17:00,38.2,28.9,30.18,North,355,4.6,4.6,69,0.00,OVC,,0.00,79.0,WeatherDisplay:10.37,2013-02-25 13:17:00,
2013-02-25 08:22:00,38.4,29.5,30.18,NE,39,3.5,0.0,70,0.00,OVC,,0.00,86.0,WeatherDisplay:10.37,2013-02-25 13:22:00,
2013-02-25 08:27:00,38.3,28.3,30.18,NNW,338,0.0,0.2,67,0.00,OVC,,0.00,91.0,WeatherDisplay:10.37,2013-02-25 13:27:00,
2013-02-25 08:32:00,38.4,29.5,30.18,North,5,3.5,3.5,70,0.00,OVC,,0.00,97.0,WeatherDisplay:10.37,2013-02-25 13:32:00,
2013-02-25 08:37:00,38.3,29.0,30.18,NNW,348,3.5,3.5,69,0.00,OVC,,0.00,105.0,WeatherDisplay:10.37,2013-02-25 13:37:00,
2013-02-25 08:42:00,38.3,28.7,30.19,NNE,14,2.0,2.0,68,0.00,OVC,,0.00,116.0,WeatherDisplay:10.37,2013-02-25 13:42:00,
2013-02-25 08:47:00,38.4,29.1,30.19,ENE,67,2.3,2.3,69,0.00,OVC,,0.00,125.0,WeatherDisplay:10.37,2013-02-25 13:47:00,
2013-02-25 08:52:00,38.4,29.1,30.20,North,9,0.0,0.0,69,0.00,OVC,,0.00,134.0,WeatherDisplay:10.37,2013-02-25 13:52:00,
2013-02-25 08:57:00,38.5,29.2,30.20,North,11,0.0,1.0,69,0.00,OVC,,0.00,142.0,WeatherDisplay:10.37,2013-02-25 13:57:00,
2013-02-25 09:02:00,38.7,29.4,30.21,ENE,63,4.6,4.6,69,0.00,OVC,,0.00,151.0,WeatherDisplay:10.37,2013-02-25 14:02:00,
2013-02-25 09:07:00,38.7,29.4,30.20,ENE,67,3.5,3.5,69,0.00,OVC,,0.00,149.0,WeatherDisplay:10.37,2013-02-25 14:07:00,
2013-02-25 09:12:00,38.6,28.9,30.20,NE,36,6.0,6.0,68,0.00,OVC,,0.00,156.0,WeatherDisplay:10.37,2013-02-25 14:12:00,
2013-02-25 09:17:00,38.6,28.9,30.20,NNE,22,0.0,0.0,68,0.00,OVC,,0.00,169.0,WeatherDisplay:10.37,2013-02-25 14:17:00,
2013-02-25 09:22:00,38.8,29.1,30.21,SSE,166,1.0,0.0,68,0.00,OVC,,0.00,174.0,WeatherDisplay:10.37,2013-02-25 14:22:00,
2013-02-25 09:27:00,39.1,29.4,30.21,NNE,25,2.3,2.3,68,0.00,OVC,,0.00,176.0,WeatherDisplay:10.37,2013-02-25 14:27:00,
2013-02-25 09:32:00,39.1,29.1,30.21,North,9,4.6,4.6,67,0.00,OVC,,0.00,171.0,WeatherDisplay:10.37,2013-02-25 14:32:00,
2013-02-25 09:37:00,39.0,29.0,30.21,NE,52,3.5,3.5,67,0.00,OVC,,0.00,169.0,WeatherDisplay:10.37,2013-02-25 14:37:00,
2013-02-25 09:42:00,39.0,29.0,30.22,NNW,340,2.3,2.3,67,0.00,OVC,,0.00,174.0,WeatherDisplay:10.37,2013-02-25 14:42:00,
2013-02-25 09:47:00,39.2,29.2,30.21,NE,34,3.5,3.5,67,0.00,OVC,,0.00,181.0,WeatherDisplay:10.37,2013-02-25 14:47:00,
2013-02-25 09:52:00,39.2,29.2,30.21,NE,34,0.0,2.7,67,0.00,OVC,,0.00,181.0,WeatherDisplay:10.37,2013-02-25 14:52:00,
2013-02-25 09:57:00,39.2,29.2,30.21,NE,34,0.0,2.7,67,0.00,OVC,,0.00,181.0,WeatherDisplay:10.37,2013-02-25 14:57:00,
2013-02-25 10:02:00,39.2,29.2,30.21,NE,34,0.0,2.7,67,0.00,OVC,,0.00,181.0,WeatherDisplay:10.37,2013-02-25 15:02:00,
2013-02-25 10:07:00,39.2,29.2,30.21,NE,34,0.0,2.7,67,0.00,OVC,,0.00,181.0,WeatherDisplay:10.37,2013-02-25 15:07:00,
2013-02-25 10:12:00,39.2,29.2,30.21,NE,34,0.0,2.7,67,0.00,OVC,,0.00,181.0,WeatherDisplay:10.37,2013-02-25 15:12:00,
2013-02-25 10:17:00,39.2,29.2,30.21,NE,34,0.0,2.7,67,0.00,OVC,,0.00,181.0,WeatherDisplay:10.37,2013-02-25 15:17:00,
2013-02-25 10:22:00,39.2,29.2,30.21,NE,34,0.0,2.7,67,0.00,OVC,,0.00,181.0,WeatherDisplay:10.37,2013-02-25 15:22:00,
2013-02-25 10:27:00,39.2,29.2,30.21,NE,34,0.0,2.7,67,0.00,OVC,,0.00,181.0,WeatherDisplay:10.37,2013-02-25 15:27:00,
2013-02-25 10:32:00,39.2,29.2,30.21,NE,34,0.0,2.7,67,0.00,OVC,,0.00,181.0,WeatherDisplay:10.37,2013-02-25 15:32:00,
2013-02-25 10:38:00,39.2,29.2,30.21,NE,34,0.0,2.7,67,0.00,OVC,,0.00,181.0,WeatherDisplay:10.37,2013-02-25 15:38:00,
2013-02-25 10:43:00,39.2,29.2,30.21,NE,34,0.0,2.7,67,0.00,OVC,,0.00,181.0,WeatherDisplay:10.37,2013-02-25 15:43:00,
2013-02-25 10:48:00,39.2,29.2,30.21,NE,34,0.0,2.7,67,0.00,OVC,,0.00,181.0,WeatherDisplay:10.37,2013-02-25 15:48:00,
2013-02-25 10:53:00,39.2,29.2,30.21,NE,34,0.0,2.7,67,0.00,OVC,,0.00,181.0,WeatherDisplay:10.37,2013-02-25 15:53:00,
2013-02-25 10:58:00,39.2,29.2,30.21,NE,34,0.0,2.7,67,0.00,OVC,,0.00,181.0,WeatherDisplay:10.37,2013-02-25 15:58:00,
2013-02-25 11:03:00,39.2,29.2,30.21,NE,34,0.0,2.7,67,0.00,OVC,,0.00,181.0,WeatherDisplay:10.37,2013-02-25 16:03:00,
2013-02-25 11:08:00,39.2,29.2,30.21,NE,34,0.0,2.7,67,0.00,OVC,,0.00,181.0,WeatherDisplay:10.37,2013-02-25 16:08:00,
2013-02-25 11:13:00,39.2,29.2,30.21,NE,34,0.0,2.7,67,0.00,OVC,,0.00,181.0,WeatherDisplay:10.37,2013-02-25 16:13:00,
2013-02-25 11:18:00,39.2,29.2,30.21,NE,34,0.0,2.7,67,0.00,OVC,,0.00,181.0,WeatherDisplay:10.37,2013-02-25 16:18:00,
2013-02-25 11:23:00,39.2,29.2,30.21,NE,34,0.0,2.7,67,0.00,OVC,,0.00,181.0,WeatherDisplay:10.37,2013-02-25 16:23:00,
2013-02-25 11:28:00,39.2,29.2,30.21,NE,34,0.0,2.7,67,0.00,OVC,,0.00,181.0,WeatherDisplay:10.37,2013-02-25 16:28:00,
2013-02-25 11:33:00,39.2,29.2,30.21,NE,34,0.0,2.7,67,0.00,OVC,,0.00,181.0,WeatherDisplay:10.37,2013-02-25 16:33:00,
2013-02-25 11:38:00,39.2,29.2,30.21,NE,34,0.0,2.7,67,0.00,OVC,,0.00,181.0,WeatherDisplay:10.37,2013-02-25 16:38:00,
2013-02-25 11:43:00,39.2,29.2,30.21,NE,34,0.0,2.7,67,0.00,OVC,,0.00,181.0,WeatherDisplay:10.37,2013-02-25 16:43:00,
2013-02-25 11:48:00,39.2,29.2,30.21,NE,34,0.0,2.7,67,0.00,OVC,,0.00,181.0,WeatherDisplay:10.37,2013-02-25 16:48:00,
2013-02-25 11:53:00,39.2,29.2,30.21,NE,34,0.0,2.7,67,0.00,OVC,,0.00,181.0,WeatherDisplay:10.37,2013-02-25 16:53:00,
2013-02-25 11:58:00,39.2,29.2,30.21,NE,34,0.0,2.7,67,0.00,OVC,,0.00,181.0,WeatherDisplay:10.37,2013-02-25 16:58:00,
2013-02-25 12:03:00,39.2,29.2,30.21,NE,34,0.0,2.7,67,0.00,CLR,,0.00,181.0,WeatherDisplay:10.37,2013-02-25 17:03:00,
2013-02-25 12:08:00,39.2,29.2,30.21,NE,34,0.0,2.7,67,0.00,CLR,,0.00,181.0,WeatherDisplay:10.37,2013-02-25 17:08:00,
2013-02-25 12:13:00,39.2,29.2,30.21,NE,34,0.0,2.7,67,0.00,CLR,,0.00,181.0,WeatherDisplay:10.37,2013-02-25 17:13:00,
2013-02-25 12:18:00,39.2,29.2,30.21,NE,34,0.0,2.7,67,0.00,CLR,,0.00,181.0,WeatherDisplay:10.37,2013-02-25 17:18:00,
2013-02-25 12:23:00,40.4,29.6,30.19,NE,36,3.5,3.5,65,0.00,CLR,,0.00,255.0,WeatherDisplay:10.37,2013-02-25 17:23:00,
2013-02-25 12:28:00,40.6,29.4,30.18,NE,41,6.9,6.9,64,0.00,CLR,,0.00,251.0,WeatherDisplay:10.37,2013-02-25 17:28:00,
2013-02-25 12:33:00,40.5,29.7,30.18,NE,51,3.5,3.5,65,0.00,CLR,,0.00,237.0,WeatherDisplay:10.37,2013-02-25 17:33:00,
2013-02-25 12:38:00,40.5,29.7,30.18,NE,51,1.1,1.2,65,0.00,CLR,,0.00,237.0,WeatherDisplay:10.37,2013-02-25 17:38:00,
2013-02-25 12:43:00,40.5,29.7,30.18,NE,51,1.1,1.2,65,0.00,CLR,,0.00,237.0,WeatherDisplay:10.37,2013-02-25 17:43:00,
2013-02-25 12:48:00,40.5,29.7,30.18,NE,51,1.1,1.2,65,0.00,CLR,,0.00,237.0,WeatherDisplay:10.37,2013-02-25 17:48:00,
2013-02-25 12:53:00,40.5,29.7,30.18,NE,51,1.1,1.2,65,0.00,CLR,,0.00,237.0,WeatherDisplay:10.37,2013-02-25 17:53:00,
2013-02-25 12:58:00,40.5,29.7,30.18,NE,51,1.1,1.2,65,0.00,CLR,,0.00,237.0,WeatherDisplay:10.37,2013-02-25 17:58:00,
2013-02-25 13:03:00,40.7,30.2,30.17,NE,36,1.1,1.3,66,0.00,CLR,,0.00,218.0,WeatherDisplay:10.37,2013-02-25 18:03:00,
2013-02-25 13:08:00,40.7,30.2,30.17,NE,36,1.1,1.3,66,0.00,CLR,,0.00,218.0,WeatherDisplay:10.37,2013-02-25 18:08:00,
2013-02-25 13:13:00,40.7,30.2,30.17,NE,36,1.1,1.3,66,0.00,CLR,,0.00,218.0,WeatherDisplay:10.37,2013-02-25 18:13:00,
2013-02-25 13:18:00,40.7,30.2,30.17,NE,36,1.1,1.3,66,0.00,CLR,,0.00,218.0,WeatherDisplay:10.37,2013-02-25 18:18:00,
2013-02-25 13:23:00,40.7,30.2,30.17,NE,36,1.1,1.3,66,0.00,CLR,,0.00,218.0,WeatherDisplay:10.37,2013-02-25 18:23:00,
2013-02-25 13:28:00,40.7,30.2,30.17,NE,36,1.1,1.3,66,0.00,CLR,,0.00,218.0,WeatherDisplay:10.37,2013-02-25 18:28:00,
2013-02-25 13:33:00,40.7,30.2,30.17,NE,36,1.1,1.3,66,0.00,CLR,,0.00,218.0,WeatherDisplay:10.37,2013-02-25 18:33:00,
2013-02-25 13:38:00,40.7,30.2,30.17,NE,36,1.1,1.3,66,0.00,CLR,,0.00,218.0,WeatherDisplay:10.37,2013-02-25 18:38:00,
2013-02-25 13:43:00,40.7,30.2,30.17,NE,36,1.1,1.3,66,0.00,FEW,,0.00,218.0,WeatherDisplay:10.37,2013-02-25 18:43:00,
2013-02-25 13:48:00,40.7,30.2,30.17,NE,36,1.1,1.3,66,0.00,FEW,,0.00,218.0,WeatherDisplay:10.37,2013-02-25 18:48:00,
2013-02-25 13:53:00,40.7,30.2,30.17,NE,36,1.1,1.3,66,0.00,SCT,,0.00,218.0,WeatherDisplay:10.37,2013-02-25 18:53:00,
2013-02-25 13:58:00,41.6,31.1,30.16,NNE,31,4.6,4.6,66,0.00,SCT,,0.00,223.0,WeatherDisplay:10.37,2013-02-25 18:58:00,
2013-02-25 14:03:00,41.4,29.7,30.15,NNE,27,0.0,1.7,63,0.00,SCT,,0.00,223.0,WeatherDisplay:10.37,2013-02-25 19:03:00,
2013-02-25 14:08:00,41.4,29.7,30.15,NNE,27,0.0,1.7,63,0.00,SCT,,0.00,223.0,WeatherDisplay:10.37,2013-02-25 19:08:00,
2013-02-25 14:13:00,41.4,29.7,30.15,NNE,27,0.0,1.7,63,0.00,SCT,,0.00,223.0,WeatherDisplay:10.37,2013-02-25 19:13:00,
2013-02-25 14:18:00,41.4,29.7,30.15,NNE,27,0.0,1.7,63,0.00,SCT,,0.00,223.0,WeatherDisplay:10.37,2013-02-25 19:18:00,
2013-02-25 14:23:00,41.4,29.7,30.15,NNE,27,0.0,1.7,63,0.00,SCT,,0.00,223.0,WeatherDisplay:10.37,2013-02-25 19:23:00,
2013-02-25 14:28:00,41.4,29.7,30.15,NNE,27,0.0,1.7,63,0.00,SCT,,0.00,223.0,WeatherDisplay:10.37,2013-02-25 19:28:00,
2013-02-25 14:33:00,41.4,29.7,30.15,NNE,27,0.0,1.7,63,0.00,SCT,,0.00,223.0,WeatherDisplay:10.37,2013-02-25 19:33:00,
2013-02-25 14:38:00,41.4,29.7,30.15,NNE,27,0.0,1.7,63,0.00,SCT,,0.00,223.0,WeatherDisplay:10.37,2013-02-25 19:38:00,
2013-02-25 14:43:00,41.4,29.7,30.15,NNE,27,0.0,1.7,63,0.00,BKN,,0.00,223.0,WeatherDisplay:10.37,2013-02-25 19:43:00,
2013-02-25 14:48:00,41.4,29.7,30.15,NNE,27,0.0,1.7,63,0.00,BKN,,0.00,223.0,WeatherDisplay:10.37,2013-02-25 19:48:00,
2013-02-25 14:53:00,41.4,29.7,30.15,NNE,27,0.0,1.7,63,0.00,BKN,,0.00,223.0,WeatherDisplay:10.37,2013-02-25 19:53:00,
2013-02-25 14:58:00,41.4,29.7,30.15,NNE,27,0.0,1.7,63,0.00,BKN,,0.00,223.0,WeatherDisplay:10.37,2013-02-25 19:58:00,
2013-02-25 15:03:00,41.4,29.7,30.15,NNE,27,0.0,1.7,63,0.00,BKN,,0.00,223.0,WeatherDisplay:10.37,2013-02-25 20:03:00,
2013-02-25 15:08:00,41.4,29.7,30.15,NNE,27,0.0,1.7,63,0.00,BKN,,0.00,223.0,WeatherDisplay:10.37,2013-02-25 20:08:00,
2013-02-25 15:13:00,41.4,29.7,30.15,NNE,27,0.0,1.7,63,0.00,BKN,,0.00,223.0,WeatherDisplay:10.37,2013-02-25 20:13:00,
2013-02-25 15:18:00,41.4,29.7,30.15,NNE,27,0.0,1.7,63,0.00,BKN,,0.00,223.0,WeatherDisplay:10.37,2013-02-25 20:18:00,
2013-02-25 15:23:00,41.4,29.7,30.15,NNE,27,0.0,1.7,63,0.00,BKN,,0.00,223.0,WeatherDisplay:10.37,2013-02-25 20:23:00,
2013-02-25 15:28:00,41.4,29.7,30.15,NNE,27,0.0,1.7,63,0.00,BKN,,0.00,223.0,WeatherDisplay:10.37,2013-02-25 20:28:00,
2013-02-25 15:33:00,41.4,29.7,30.15,NNE,27,0.0,1.7,63,0.00,BKN,,0.00,223.0,WeatherDisplay:10.37,2013-02-25 20:33:00,
2013-02-25 15:38:00,41.4,29.7,30.15,NNE,27,0.0,1.7,63,0.00,BKN,,0.00,223.0,WeatherDisplay:10.37,2013-02-25 20:38:00,
2013-02-25 15:43:00,41.4,29.7,30.15,NNE,27,0.0,1.7,63,0.00,BKN,,0.00,223.0,WeatherDisplay:10.37,2013-02-25 20:43:00,
2013-02-25 15:48:00,41.4,29.7,30.15,NNE,27,0.0,1.7,63,0.00,BKN,,0.00,223.0,WeatherDisplay:10.37,2013-02-25 20:48:00,
2013-02-25 15:53:00,41.4,29.7,30.15,NNE,27,0.0,1.7,63,0.00,BKN,,0.00,223.0,WeatherDisplay:10.37,2013-02-25 20:53:00,
2013-02-25 15:58:00,41.4,29.7,30.15,NNE,27,0.0,1.7,63,0.00,BKN,,0.00,223.0,WeatherDisplay:10.37,2013-02-25 20:58:00,
2013-02-25 16:03:00,41.4,29.7,30.15,NNE,27,0.0,1.7,63,0.00,BKN,,0.00,223.0,WeatherDisplay:10.37,2013-02-25 21:03:00,
2013-02-25 16:08:00,41.4,29.7,30.15,NNE,27,0.0,1.7,63,0.00,BKN,,0.00,223.0,WeatherDisplay:10.37,2013-02-25 21:08:00,
2013-02-25 16:13:00,41.4,29.7,30.15,NNE,27,0.0,1.7,63,0.00,BKN,,0.00,223.0,WeatherDisplay:10.37,2013-02-25 21:13:00,
2013-02-25 16:18:00,41.4,29.7,30.15,NNE,27,0.0,1.7,63,0.00,BKN,,0.00,223.0,WeatherDisplay:10.37,2013-02-25 21:18:00,
2013-02-25 16:23:00,41.4,29.7,30.15,NNE,27,0.0,1.7,63,0.00,BKN,,0.00,223.0,WeatherDisplay:10.37,2013-02-25 21:23:00,
2013-02-25 16:28:00,41.4,29.7,30.15,NNE,27,0.0,1.7,63,0.00,BKN,,0.00,223.0,WeatherDisplay:10.37,2013-02-25 21:28:00,
2013-02-25 16:33:00,41.4,29.7,30.15,NNE,27,0.0,1.7,63,0.00,BKN,,0.00,223.0,WeatherDisplay:10.37,2013-02-25 21:33:00,
2013-02-25 16:38:00,41.4,29.7,30.15,NNE,27,0.0,1.7,63,0.00,BKN,,0.00,223.0,WeatherDisplay:10.37,2013-02-25 21:38:00,
2013-02-25 16:43:00,41.4,29.7,30.15,NNE,27,0.0,1.7,63,0.00,BKN,,0.00,223.0,WeatherDisplay:10.37,2013-02-25 21:43:00,
2013-02-25 16:48:00,41.4,29.7,30.15,NNE,27,0.0,1.7,63,0.00,BKN,,0.00,223.0,WeatherDisplay:10.37,2013-02-25 21:48:00,
2013-02-25 16:53:00,41.4,29.7,30.15,NNE,27,0.0,1.7,63,0.00,BKN,,0.00,223.0,WeatherDisplay:10.37,2013-02-25 21:53:00,
2013-02-25 16:58:00,41.4,29.7,30.15,NNE,27,0.0,1.7,63,0.00,BKN,,0.00,223.0,WeatherDisplay:10.37,2013-02-25 21:58:00,
2013-02-25 17:03:00,41.4,29.7,30.15,NNE,27,0.0,1.7,63,0.00,BKN,,0.00,223.0,WeatherDisplay:10.37,2013-02-25 22:03:00,
2013-02-25 17:08:00,41.4,29.7,30.15,NNE,27,0.0,1.7,63,0.00,BKN,,0.00,223.0,WeatherDisplay:10.37,2013-02-25 22:08:00,
2013-02-25 17:13:00,41.4,29.7,30.15,NNE,27,0.0,1.7,63,0.00,BKN,,0.00,223.0,WeatherDisplay:10.37,2013-02-25 22:13:00,
2013-02-25 17:18:00,41.4,29.7,30.15,NNE,27,0.0,1.7,63,0.00,BKN,,0.00,223.0,WeatherDisplay:10.37,2013-02-25 22:18:00,
2013-02-25 17:23:00,41.4,29.7,30.15,NNE,27,0.0,1.7,63,0.00,BKN,,0.00,223.0,WeatherDisplay:10.37,2013-02-25 22:23:00,
2013-02-25 17:28:00,41.4,29.7,30.15,NNE,27,0.0,1.7,63,0.00,BKN,,0.00,223.0,WeatherDisplay:10.37,2013-02-25 22:28:00,
2013-02-25 17:33:00,41.4,29.7,30.15,NNE,27,0.0,1.7,63,0.00,BKN,,0.00,223.0,WeatherDisplay:10.37,2013-02-25 22:33:00,
2013-02-25 17:38:00,41.4,29.7,30.15,NNE,27,0.0,1.7,63,0.00,BKN,,0.00,223.0,WeatherDisplay:10.37,2013-02-25 22:38:00,
2013-02-25 17:43:00,41.4,29.7,30.15,NNE,27,0.0,1.7,63,0.00,BKN,,0.00,223.0,WeatherDisplay:10.37,2013-02-25 22:43:00,
2013-02-25 17:48:00,41.4,29.7,30.15,NNE,27,0.0,1.7,63,0.00,BKN,,0.00,223.0,WeatherDisplay:10.37,2013-02-25 22:48:00,
2013-02-25 17:53:00,41.4,29.7,30.15,NNE,27,0.0,1.7,63,0.00,BKN,,0.00,223.0,WeatherDisplay:10.37,2013-02-25 22:53:00,
2013-02-25 17:58:00,41.4,29.7,30.15,NNE,27,0.0,1.7,63,0.00,BKN,,0.00,223.0,WeatherDisplay:10.37,2013-02-25 22:58:00,
2013-02-25 18:03:00,41.4,29.7,30.15,NNE,27,0.0,1.7,63,0.00,BKN,,0.00,223.0,WeatherDisplay:10.37,2013-02-25 23:03:00,
2013-02-25 18:08:00,41.4,29.7,30.15,NNE,27,0.0,1.7,63,0.00,BKN,,0.00,223.0,WeatherDisplay:10.37,2013-02-25 23:08:00,
2013-02-25 18:13:00,41.4,29.7,30.15,NNE,27,0.0,1.7,63,0.00,BKN,,0.00,223.0,WeatherDisplay:10.37,2013-02-25 23:13:00,
2013-02-25 18:18:00,41.4,29.7,30.15,NNE,27,0.0,1.7,63,0.00,BKN,,0.00,223.0,WeatherDisplay:10.37,2013-02-25 23:18:00,
2013-02-25 18:23:00,41.4,29.7,30.15,NNE,27,0.0,1.7,63,0.00,BKN,,0.00,223.0,WeatherDisplay:10.37,2013-02-25 23:23:00,
2013-02-25 18:28:00,41.4,29.7,30.15,NNE,27,0.0,1.7,63,0.00,BKN,,0.00,223.0,WeatherDisplay:10.37,2013-02-25 23:28:00,
2013-02-25 18:33:00,41.4,29.7,30.15,NNE,27,0.0,1.7,63,0.00,BKN,,0.00,223.0,WeatherDisplay:10.37,2013-02-25 23:33:00,
2013-02-25 18:38:00,41.4,29.7,30.15,NNE,27,0.0,1.7,63,0.00,BKN,,0.00,223.0,WeatherDisplay:10.37,2013-02-25 23:38:00,
2013-02-25 18:43:00,41.4,29.7,30.15,NNE,27,0.0,1.7,63,0.00,BKN,,0.00,223.0,WeatherDisplay:10.37,2013-02-25 23:43:00,
2013-02-25 18:48:00,41.4,29.7,30.15,NNE,27,0.0,1.7,63,0.00,CLR,,0.00,0.0,WeatherDisplay:10.37,2013-02-25 23:48:00,
2013-02-25 18:53:00,41.4,29.7,30.15,NNE,27,0.0,1.7,63,0.00,CLR,,0.00,0.0,WeatherDisplay:10.37,2013-02-25 23:53:00,
2013-02-25 18:58:00,41.4,29.7,30.15,NNE,27,0.0,1.7,63,0.00,CLR,,0.00,0.0,WeatherDisplay:10.37,2013-02-25 23:58:00,
2013-02-25 19:03:00,39.4,28.6,30.15,NE,54,0.0,0.0,65,0.00,CLR,,0.00,0.0,WeatherDisplay:10.37,2013-02-26 00:03:00,
2013-02-25 19:08:00,39.4,28.6,30.15,NE,54,0.0,0.0,65,0.00,CLR,,0.00,0.0,WeatherDisplay:10.37,2013-02-26 00:08:00,
2013-02-25 19:13:00,39.4,28.6,30.15,NE,54,0.0,0.0,65,0.00,CLR,,0.00,0.0,WeatherDisplay:10.37,2013-02-26 00:13:00,
2013-02-25 19:18:00,39.4,28.6,30.15,NE,54,0.0,0.0,65,0.00,CLR,,0.00,0.0,WeatherDisplay:10.37,2013-02-26 00:18:00,
2013-02-25 19:23:00,39.4,28.6,30.15,NE,54,0.0,0.0,65,0.00,CLR,,0.00,0.0,WeatherDisplay:10.37,2013-02-26 00:23:00,
2013-02-25 19:28:00,39.4,28.6,30.15,NE,54,0.0,0.0,65,0.00,CLR,,0.00,0.0,WeatherDisplay:10.37,2013-02-26 00:28:00,
2013-02-25 19:33:00,38.9,28.1,30.13,SSE,158,0.0,0.0,65,0.00,CLR,,0.00,0.0,WeatherDisplay:10.37,2013-02-26 00:33:00,
2013-02-25 19:38:00,38.9,28.1,30.13,SSE,158,0.0,0.0,65,0.00,CLR,,0.00,0.0,WeatherDisplay:10.37,2013-02-26 00:38:00,
2013-02-25 19:43:00,38.9,28.1,30.13,SSE,158,0.0,0.0,65,0.00,CLR,,0.00,0.0,WeatherDisplay:10.37,2013-02-26 00:43:00,
2013-02-25 19:48:00,38.9,28.1,30.13,SSE,158,0.0,0.0,65,0.00,CLR,,0.00,0.0,WeatherDisplay:10.37,2013-02-26 00:48:00,
2013-02-25 19:53:00,38.9,28.1,30.13,SSE,158,0.0,0.0,65,0.00,CLR,,0.00,0.0,WeatherDisplay:10.37,2013-02-26 00:53:00,
2013-02-25 19:58:00,38.9,28.1,30.13,SSE,158,0.0,0.0,65,0.00,CLR,,0.00,0.0,WeatherDisplay:10.37,2013-02-26 00:58:00,
2013-02-25 20:03:00,38.9,28.1,30.13,SSE,158,0.0,0.0,65,0.00,CLR,,0.00,0.0,WeatherDisplay:10.37,2013-02-26 01:03:00,
2013-02-25 20:08:00,38.9,28.1,30.13,SSE,158,0.0,0.0,65,0.00,CLR,,0.00,0.0,WeatherDisplay:10.37,2013-02-26 01:08:00,
2013-02-25 20:13:00,38.9,28.1,30.13,SSE,158,0.0,0.0,65,0.00,CLR,,0.00,0.0,WeatherDisplay:10.37,2013-02-26 01:13:00,
2013-02-25 20:18:00,38.9,28.1,30.13,SSE,158,0.0,0.0,65,0.00,CLR,,0.00,0.0,WeatherDisplay:10.37,2013-02-26 01:18:00,
2013-02-25 20:23:00,38.9,28.1,30.13,SSE,158,0.0,0.0,65,0.00,CLR,,0.00,0.0,WeatherDisplay:10.37,2013-02-26 01:23:00,
2013-02-25 20:28:00,38.9,28.1,30.13,SSE,158,0.0,0.0,65,0.00,CLR,,0.00,0.0,WeatherDisplay:10.37,2013-02-26 01:28:00,
2013-02-25 20:33:00,38.9,28.1,30.13,SSE,158,0.0,0.0,65,0.00,CLR,,0.00,0.0,WeatherDisplay:10.37,2013-02-26 01:33:00,
2013-02-25 20:38:00,38.9,28.1,30.13,SSE,158,0.0,0.0,65,0.00,CLR,,0.00,0.0,WeatherDisplay:10.37,2013-02-26 01:38:00,
2013-02-25 20:43:00,38.9,28.1,30.13,SSE,158,0.0,0.0,65,0.00,CLR,,0.00,0.0,WeatherDisplay:10.37,2013-02-26 01:43:00,
2013-02-25 20:48:00,38.9,28.1,30.13,SSE,158,0.0,0.0,65,0.00,CLR,,0.00,0.0,WeatherDisplay:10.37,2013-02-26 01:48:00,
2013-02-25 20:53:00,38.9,28.1,30.13,SSE,158,0.0,0.0,65,0.00,CLR,,0.00,0.0,WeatherDisplay:10.37,2013-02-26 01:53:00,
2013-02-25 20:58:00,38.9,28.1,30.13,SSE,158,0.0,0.0,65,0.00,CLR,,0.00,0.0,WeatherDisplay:10.37,2013-02-26 01:58:00,
2013-02-25 21:03:00,38.9,28.1,30.13,SSE,158,0.0,0.0,65,0.00,CLR,,0.00,0.0,WeatherDisplay:10.37,2013-02-26 02:03:00,
2013-02-25 21:08:00,38.9,28.1,30.13,SSE,158,0.0,0.0,65,0.00,CLR,,0.00,0.0,WeatherDisplay:10.37,2013-02-26 02:08:00,
2013-02-25 21:13:00,38.9,28.1,30.13,SSE,158,0.0,0.0,65,0.00,CLR,,0.00,0.0,WeatherDisplay:10.37,2013-02-26 02:13:00,
2013-02-25 21:18:00,38.9,28.1,30.13,SSE,158,0.0,0.0,65,0.00,CLR,,0.00,0.0,WeatherDisplay:10.37,2013-02-26 02:18:00,
2013-02-25 21:23:00,38.9,28.1,30.13,SSE,158,0.0,0.0,65,0.00,CLR,,0.00,0.0,WeatherDisplay:10.37,2013-02-26 02:23:00,
2013-02-25 21:28:00,38.9,28.1,30.13,SSE,158,0.0,0.0,65,0.00,CLR,,0.00,0.0,WeatherDisplay:10.37,2013-02-26 02:28:00,
2013-02-25 21:33:00,38.9,28.1,30.13,SSE,158,0.0,0.0,65,0.00,CLR,,0.00,0.0,WeatherDisplay:10.37,2013-02-26 02:33:00,
2013-02-25 21:38:00,38.9,28.1,30.13,SSE,158,0.0,0.0,65,0.00,CLR,,0.00,0.0,WeatherDisplay:10.37,2013-02-26 02:38:00,
2013-02-25 21:43:00,38.9,28.1,30.13,SSE,158,0.0,0.0,65,0.00,CLR,,0.00,0.0,WeatherDisplay:10.37,2013-02-26 02:43:00,
2013-02-25 21:48:00,38.9,28.1,30.13,SSE,158,0.0,0.0,65,0.00,CLR,,0.00,0.0,WeatherDisplay:10.37,2013-02-26 02:48:00,
2013-02-25 21:53:00,38.9,28.1,30.13,SSE,158,0.0,0.0,65,0.00,CLR,,0.00,0.0,WeatherDisplay:10.37,2013-02-26 02:53:00,
2013-02-25 21:58:00,39.4,29.0,30.15,NNE,17,0.0,0.0,66,0.00,CLR,,0.00,0.0,WeatherDisplay:10.37,2013-02-26 02:58:00,
2013-02-25 22:03:00,39.4,29.0,30.15,NNE,17,0.0,0.0,66,0.00,CLR,,0.00,0.0,WeatherDisplay:10.37,2013-02-26 03:03:00,
2013-02-25 22:08:00,39.4,29.0,30.15,NNE,17,0.0,0.0,66,0.00,CLR,,0.00,0.0,WeatherDisplay:10.37,2013-02-26 03:08:00,
2013-02-25 22:13:00,39.4,29.0,30.15,NNE,17,0.0,0.0,66,0.00,CLR,,0.00,0.0,WeatherDisplay:10.37,2013-02-26 03:13:00,
2013-02-25 22:18:00,39.4,29.0,30.15,NNE,17,0.0,0.0,66,0.00,CLR,,0.00,0.0,WeatherDisplay:10.37,2013-02-26 03:18:00,
2013-02-25 22:23:00,39.4,29.0,30.15,NNE,17,0.0,0.0,66,0.00,CLR,,0.00,0.0,WeatherDisplay:10.37,2013-02-26 03:23:00,
2013-02-25 22:28:00,39.4,29.0,30.15,NNE,17,0.0,0.0,66,0.00,CLR,,0.00,0.0,WeatherDisplay:10.37,2013-02-26 03:28:00,
2013-02-25 22:33:00,39.4,29.0,30.15,NNE,17,0.0,0.0,66,0.00,CLR,,0.00,0.0,WeatherDisplay:10.37,2013-02-26 03:33:00,
2013-02-25 22:38:00,39.4,29.0,30.15,NNE,17,0.0,0.0,66,0.00,CLR,,0.00,0.0,WeatherDisplay:10.37,2013-02-26 03:38:00,
2013-02-25 22:43:00,39.4,29.0,30.15,NNE,17,0.0,0.0,66,0.00,CLR,,0.00,0.0,WeatherDisplay:10.37,2013-02-26 03:43:00,
2013-02-25 22:48:00,39.4,29.0,30.15,NNE,17,0.0,0.0,66,0.00,CLR,,0.00,0.0,WeatherDisplay:10.37,2013-02-26 03:48:00,
2013-02-25 22:53:00,39.4,29.0,30.15,NNE,17,0.0,0.0,66,0.00,CLR,,0.00,0.0,WeatherDisplay:10.37,2013-02-26 03:53:00,
2013-02-25 22:58:00,39.4,29.0,30.15,NNE,17,0.0,0.0,66,0.00,CLR,,0.00,0.0,WeatherDisplay:10.37,2013-02-26 03:58:00,
2013-02-25 23:03:00,39.4,29.0,30.15,NNE,17,0.0,0.0,66,0.00,CLR,,0.00,0.0,WeatherDisplay:10.37,2013-02-26 04:03:00,
2013-02-25 23:08:00,39.4,29.0,30.15,NNE,17,0.0,0.0,66,0.00,CLR,,0.00,0.0,WeatherDisplay:10.37,2013-02-26 04:08:00,
2013-02-25 23:13:00,39.4,29.0,30.15,NNE,17,0.0,0.0,66,0.00,CLR,,0.00,0.0,WeatherDisplay:10.37,2013-02-26 04:13:00,
2013-02-25 23:18:00,39.4,29.0,30.15,NNE,17,0.0,0.0,66,0.00,CLR,,0.00,0.0,WeatherDisplay:10.37,2013-02-26 04:18:00,
2013-02-25 23:23:00,39.4,29.0,30.15,NNE,17,0.0,0.0,66,0.00,CLR,,0.00,0.0,WeatherDisplay:10.37,2013-02-26 04:23:00,
2013-02-25 23:28:00,39.4,29.0,30.15,NNE,17,0.0,0.0,66,0.00,CLR,,0.00,0.0,WeatherDisplay:10.37,2013-02-26 04:28:00,
2013-02-25 23:33:00,39.4,29.0,30.15,NNE,17,0.0,0.0,66,0.00,CLR,,0.00,0.0,WeatherDisplay:10.37,2013-02-26 04:33:00,
2013-02-25 23:38:00,39.4,29.0,30.15,NNE,17,0.0,0.0,66,0.00,CLR,,0.00,0.0,WeatherDisplay:10.37,2013-02-26 04:38:00,
2013-02-25 23:43:00,39.4,29.0,30.15,NNE,17,0.0,0.0,66,0.00,CLR,,0.00,0.0,WeatherDisplay:10.37,2013-02-26 04:43:00,
2013-02-25 23:48:00,39.4,29.0,30.15,NNE,17,0.0,0.0,66,0.00,CLR,,0.00,0.0,WeatherDisplay:10.37,2013-02-26 04:48:00,
2013-02-25 23:53:00,39.4,29.0,30.15,NNE,17,0.0,0.0,66,0.00,CLR,,0.00,0.0,WeatherDisplay:10.37,2013-02-26 04:53:00,
2013-02-25 23:58:00,39.4,29.0,30.15,NNE,17,0.0,0.0,66,0.00,CLR,,0.00,0.0,WeatherDisplay:10.37,2013-02-26 04:58:00,